Time;durP1;ratioP1;P1;durP2;ratioP2;P2;SDS_P1;SDS_P2;PMS_P1;PMS_P2;Temp;Humidity;BMP_temperature;BMP_pressure;BME280_temperature;BME280_humidity;BME280_pressure;Samples;Min_cycle;Max_cycle;Signal;HPM_P1;HPM_P2
2023/02/24 00:01:23;;;;;;;14.00;9.43;;;;;;;8.28;70.37;94633.38;4197046;28;20059;-57
2023/02/24 00:03:25;;;;;;;19.00;10.35;;;;;;;8.38;69.72;94636.75;4184291;28;20451;-58
2023/02/24 00:05:28;;;;;;;15.13;9.73;;;;;;;8.32;69.15;94635.56;4195339;28;20048;-55
2023/02/24 00:07:30;;;;;;;16.50;9.73;;;;;;;8.31;69.36;94631.31;4185618;28;20072;-59
2023/02/24 00:09:32;;;;;;;15.45;8.95;;;;;;;8.27;69.25;94629.97;4197209;28;20113;-60
2023/02/24 00:11:40;;;;;;;16.88;9.82;;;;;;;8.30;69.35;94632.31;4186922;28;20053;-59
2023/02/24 00:13:46;;;;;;;16.58;9.90;;;;;;;8.38;68.55;94628.94;4196222;28;20075;-60
2023/02/24 00:15:59;;;;;;;16.38;10.30;;;;;;;8.34;68.25;94620.56;4181584;28;20517;-60
2023/02/24 00:18:05;;;;;;;15.30;9.73;;;;;;;8.34;69.17;94624.97;4191169;28;20052;-58
2023/02/24 00:20:11;;;;;;;19.40;9.80;;;;;;;8.34;68.79;94628.41;4194883;28;20047;-59
2023/02/24 00:22:15;;;;;;;14.20;8.68;;;;;;;8.14;69.22;94635.53;4181309;28;20442;-59
2023/02/24 00:24:24;;;;;;;16.63;8.65;;;;;;;8.08;69.88;94630.88;4180705;28;20099;-60
2023/02/24 00:26:26;;;;;;;15.45;8.90;;;;;;;8.05;69.82;94628.59;4194328;28;20504;-60
2023/02/24 00:28:28;;;;;;;12.85;8.95;;;;;;;8.07;69.53;94626.66;4191817;28;20055;-58
2023/02/24 00:30:31;;;;;;;14.02;8.63;;;;;;;8.05;69.73;94628.59;4190102;28;20434;-59
2023/02/24 00:32:35;;;;;;;;;;;;;;;7.99;69.50;94626.56;4184951;28;20093;-59
2023/02/24 00:34:37;;;;;;;16.30;9.80;;;;;;;8.01;70.16;94622.00;4199692;28;19920;-56
2023/02/24 00:36:38;;;;;;;15.23;9.23;;;;;;;7.99;70.18;94621.34;4191242;28;20588;-58
2023/02/24 00:38:46;;;;;;;13.65;8.90;;;;;;;8.04;69.32;94623.50;4179440;28;20049;-57
2023/02/24 00:40:47;;;;;;;14.95;9.10;;;;;;;8.07;69.21;94620.63;4192231;28;20518;-59
2023/02/24 00:42:49;;;;;;;17.48;10.07;;;;;;;8.11;69.22;94614.97;4201196;28;20082;-59
2023/02/24 00:44:52;;;;;;;16.40;8.85;;;;;;;8.06;69.16;94611.13;4212770;28;20126;-57
2023/02/24 00:46:58;;;;;;;13.77;8.70;;;;;;;8.03;69.02;94614.88;4212533;28;20135;-56
2023/02/24 00:49:04;;;;;;;14.38;8.80;;;;;;;7.96;69.86;94614.63;4194061;28;20383;-58
2023/02/24 00:51:09;;;;;;;14.65;9.38;;;;;;;8.00;69.51;94604.69;4188960;28;20436;-58
2023/02/24 00:53:11;;;;;;;15.68;9.63;;;;;;;7.97;69.85;94613.63;4189851;28;20052;-59
2023/02/24 00:55:15;;;;;;;16.05;9.00;;;;;;;7.90;69.88;94602.16;4194621;28;20048;-58
2023/02/24 00:57:19;;;;;;;14.80;9.05;;;;;;;7.96;70.31;94600.78;4209657;28;20112;-60
2023/02/24 00:59:22;;;;;;;11.93;8.38;;;;;;;7.97;70.26;94602.41;4207324;28;20099;-57
2023/02/24 01:01:28;;;;;;;17.05;9.80;;;;;;;7.98;69.84;94604.88;4204000;28;20076;-57
2023/02/24 01:03:31;;;;;;;18.08;9.40;;;;;;;8.09;69.83;94601.25;4210782;28;20059;-57
2023/02/24 01:05:35;;;;;;;14.13;8.60;;;;;;;8.13;69.47;94601.75;4211324;28;20046;-56
2023/02/24 01:07:36;;;;;;;15.18;9.13;;;;;;;8.12;68.70;94597.50;4211964;28;20052;-57
2023/02/24 01:09:40;;;;;;;15.27;9.32;;;;;;;8.21;69.05;94594.81;4211990;28;20056;-50
2023/02/24 01:14:10;;;;;;;14.13;9.05;;;;;;;8.25;68.52;94592.75;4197058;28;20076;-58
2023/02/24 01:16:13;;;;;;;13.10;8.95;;;;;;;8.27;69.50;94579.56;4201522;28;20126;-60
2023/02/24 01:18:15;;;;;;;14.00;9.60;;;;;;;8.32;68.14;94585.16;4197686;28;20048;-57
2023/02/24 01:20:17;;;;;;;14.20;9.02;;;;;;;8.21;68.68;94584.38;4194060;28;20541;-58
2023/02/24 01:22:19;;;;;;;14.45;8.88;;;;;;;8.26;68.49;94583.13;4194047;28;20110;-58
2023/02/24 01:24:25;;;;;;;12.82;8.75;;;;;;;8.26;69.26;94580.50;4195716;28;20410;-61
2023/02/24 01:26:26;;;;;;;14.13;8.60;;;;;;;8.31;68.29;94573.91;4191015;28;20052;-60
2023/02/24 01:28:29;;;;;;;13.57;8.88;;;;;;;8.37;68.89;94578.53;4207111;28;20052;-59
2023/02/24 01:30:30;;;;;;;15.55;8.32;;;;;;;8.33;68.23;94571.97;4207915;28;20098;-58
2023/02/24 01:32:32;;;;;;;14.05;7.88;;;;;;;8.32;68.33;94572.09;4189373;28;20060;-57
2023/02/24 01:34:34;;;;;;;13.57;8.70;;;;;;;8.35;67.83;94569.22;4206028;28;20040;-60
2023/02/24 01:36:36;;;;;;;12.52;8.63;;;;;;;8.24;68.94;94566.78;4195635;28;20052;-58
2023/02/24 01:38:41;;;;;;;12.43;8.02;;;;;;;8.19;68.65;94565.47;4195011;28;20055;-58
2023/02/24 01:40:43;;;;;;;11.88;7.35;;;;;;;8.07;68.76;94569.25;4189104;28;20045;-60
2023/02/24 01:42:46;;;;;;;14.05;8.98;;;;;;;8.09;69.14;94564.72;4189182;28;20439;-60
2023/02/24 01:44:50;;;;;;;12.30;8.02;;;;;;;8.05;68.82;94563.38;4195324;28;20107;-60
2023/02/24 01:46:52;;;;;;;10.10;7.50;;;;;;;7.99;68.93;94580.41;4192684;28;20056;-57
2023/02/24 01:48:58;;;;;;;14.10;7.97;;;;;;;7.99;68.62;94572.59;4189938;28;20048;-54
2023/02/24 01:51:00;;;;;;;14.15;7.90;;;;;;;7.96;68.88;94566.84;4194472;28;20551;-59
2023/02/24 01:53:04;;;;;;;13.68;8.90;;;;;;;8.03;68.89;94567.09;4195398;28;20047;-57
2023/02/24 01:55:13;;;;;;;12.13;7.60;;;;;;;8.04;68.81;94566.09;4194386;28;20091;-59
2023/02/24 01:57:18;;;;;;;13.57;8.48;;;;;;;8.08;68.94;94564.84;4195052;28;20052;-58
2023/02/24 01:59:22;;;;;;;13.15;8.40;;;;;;;8.14;68.45;94561.66;4200794;28;20048;-59
2023/02/24 02:01:24;;;;;;;13.88;8.50;;;;;;;8.16;68.95;94563.16;4211020;28;20048;-56
2023/02/24 02:03:29;;;;;;;13.90;8.10;;;;;;;8.09;68.45;94567.31;4194946;28;20078;-55
2023/02/24 02:05:30;;;;;;;14.10;8.48;;;;;;;7.94;69.12;94569.59;4178756;28;20037;-57
2023/02/24 02:07:32;;;;;;;13.45;7.75;;;;;;;7.93;69.29;94560.13;4186571;28;20165;-58
2023/02/24 02:09:33;;;;;;;12.45;8.27;;;;;;;7.99;69.00;94569.97;4183229;28;20049;-58
2023/02/24 02:11:35;;;;;;;14.40;8.40;;;;;;;8.10;68.94;94561.13;4192835;28;20544;-60
2023/02/24 02:13:41;;;;;;;13.45;8.35;;;;;;;8.04;69.21;94563.50;4197282;28;20102;-52
2023/02/24 02:15:55;;;;;;;13.55;8.60;;;;;;;8.06;68.79;94562.38;4198446;28;20051;-50
2023/02/24 02:18:12;;;;;;;13.35;8.40;;;;;;;8.09;68.18;94562.09;4182245;28;20053;-54
2023/02/24 02:20:25;;;;;;;14.35;8.57;;;;;;;8.12;68.35;94556.56;4183449;28;20446;-53
2023/02/24 02:23:06;;;;;;;12.13;8.77;;;;;;;8.21;68.13;94566.13;4197870;28;20052;-55
2023/02/24 02:25:29;;;;;;;12.73;8.27;;;;;;;8.25;68.27;94563.22;4158900;28;20041;-52
2023/02/24 02:27:40;;;;;;;15.40;8.32;;;;;;;8.23;67.89;94568.59;4146488;28;20054;-54
2023/02/24 02:30:04;;;;;;;12.25;8.02;;;;;;;8.23;67.41;94565.16;4166739;28;20052;-54
2023/02/24 02:32:34;;;;;;;10.93;7.32;;;;;;;8.17;67.58;94567.41;4181620;28;20392;-57
2023/02/24 02:34:56;;;;;;;11.57;7.10;;;;;;;8.14;67.84;94567.69;4181761;28;20049;-55
2023/02/24 02:37:33;;;;;;;12.55;7.50;;;;;;;8.10;67.75;94568.94;4189418;28;20677;-55
2023/02/24 02:39:48;;;;;;;11.88;7.90;;;;;;;8.12;68.01;94563.59;4169078;28;20585;-57
2023/02/24 02:41:53;;;;;;;13.73;8.00;;;;;;;8.14;67.50;94565.06;4182440;28;20087;-56
2023/02/24 02:44:06;;;;;;;11.43;7.70;;;;;;;8.18;67.71;94563.81;4193647;28;20538;-55
2023/02/24 02:46:16;;;;;;;10.25;6.68;;;;;;;8.18;67.12;94571.66;4181040;28;20518;-55
2023/02/24 02:48:33;;;;;;;12.18;6.97;;;;;;;8.13;67.50;94566.06;4188360;28;20048;-56
2023/02/24 02:50:46;;;;;;;10.40;6.80;;;;;;;8.13;67.94;94565.22;4196879;28;20052;-55
2023/02/24 02:53:02;;;;;;;10.27;7.32;;;;;;;8.10;67.43;94561.13;4198562;28;20049;-57
2023/02/24 02:55:29;;;;;;;11.23;7.60;;;;;;;8.13;67.60;94566.06;4198095;28;20052;-60
2023/02/24 02:57:31;;;;;;;10.73;7.20;;;;;;;8.12;67.26;94558.38;4182255;28;20060;-59
2023/02/24 02:59:36;;;;;;;10.40;6.25;;;;;;;8.14;67.01;94552.03;4186723;28;20048;-57
2023/02/24 03:01:42;;;;;;;11.73;6.70;;;;;;;8.12;67.66;94553.16;4193208;28;20063;-58
2023/02/24 03:03:48;;;;;;;11.23;6.97;;;;;;;8.11;67.39;94554.94;4194959;28;20056;-57
2023/02/24 03:05:55;;;;;;;13.85;7.45;;;;;;;8.11;67.25;94554.94;4206376;28;20074;-58
2023/02/24 03:07:58;;;;;;;12.55;6.85;;;;;;;8.10;67.02;94553.28;4184094;28;20131;-58
2023/02/24 03:10:09;;;;;;;14.88;7.20;;;;;;;8.09;66.95;94556.88;4195531;28;20793;-61
2023/02/24 03:12:14;;;;;;;10.00;6.20;;;;;;;8.06;66.88;94558.94;4195086;28;20101;-58
2023/02/24 03:14:18;;;;;;;11.73;7.25;;;;;;;8.08;67.11;94557.84;4184763;28;20106;-56
2023/02/24 03:16:22;;;;;;;12.70;7.50;;;;;;;8.08;67.14;94554.41;4189143;28;20087;-58
2023/02/24 03:18:31;;;;;;;13.02;7.68;;;;;;;8.09;67.21;94562.09;4198096;28;20449;-55
2023/02/24 03:20:37;;;;;;;15.68;7.85;;;;;;;8.11;66.91;94568.00;4181757;28;20438;-55
2023/02/24 03:23:01;;;;;;;16.17;8.13;;;;;;;8.08;67.01;94565.66;4186897;28;20044;-55
2023/02/24 03:25:04;;;;;;;;;;;;;;;8.01;67.27;94559.41;4202970;28;20537;-50
2023/02/24 03:27:19;;;;;;;13.40;7.50;;;;;;;8.02;66.82;94561.03;4212960;28;19948;-53
2023/02/24 03:29:44;;;;;;;13.80;7.90;;;;;;;8.03;66.83;94565.28;4212713;28;20043;-52
2023/02/24 03:32:03;;;;;;;13.98;7.97;;;;;;;8.07;67.27;94565.84;4196458;28;20049;-53
2023/02/24 03:34:11;;;;;;;14.63;8.00;;;;;;;8.00;66.91;94565.56;4184100;28;20619;-53
2023/02/24 03:36:13;;;;;;;15.07;8.43;;;;;;;7.94;67.74;94560.97;4209587;28;20410;-54
2023/02/24 03:38:15;;;;;;;14.88;7.03;;;;;;;7.99;67.31;94550.91;4208848;28;20040;-56
2023/02/24 03:40:19;;;;;;;15.07;8.77;;;;;;;8.02;67.49;94561.03;4208987;28;20060;-56
2023/02/24 03:42:21;;;;;;;;;;;;;;;8.05;67.36;94558.16;4210327;28;20059;-54
2023/02/24 03:44:25;;;;;;;16.13;8.68;;;;;;;8.01;66.82;94556.78;4212096;28;19920;-49
2023/02/24 03:46:28;;;;;;;18.90;8.73;;;;;;;8.00;67.06;94570.78;4208710;28;20070;-54
2023/02/24 03:48:32;;;;;;;17.25;8.48;;;;;;;7.96;67.01;94561.63;4210146;28;20052;-55
2023/02/24 03:50:34;;;;;;;15.60;8.55;;;;;;;7.94;66.88;94556.56;4206195;28;20049;-55
2023/02/24 03:52:46;;;;;;;18.98;9.18;;;;;;;7.85;67.16;94561.81;4208594;28;20510;-52
2023/02/24 03:55:16;;;;;;;15.73;8.75;;;;;;;7.87;67.56;94557.28;4209860;28;20066;-54
2023/02/24 03:57:54;;;;;;;15.18;7.63;;;;;;;7.98;67.60;94559.72;4189031;28;20036;-54
2023/02/24 04:00:21;;;;;;;13.32;8.07;;;;;;;8.05;66.97;94557.31;4208110;28;20047;-54
2023/02/24 04:02:29;;;;;;;13.02;7.60;;;;;;;8.05;66.50;94560.75;4190336;28;20040;-53
2023/02/24 04:04:40;;;;;;;12.57;7.55;;;;;;;7.81;66.68;94566.53;4208684;28;20056;-51
2023/02/24 04:06:45;;;;;;;11.85;6.78;;;;;;;7.69;67.36;94565.06;4209624;28;20048;-52
2023/02/24 04:08:51;;;;;;;13.85;7.05;;;;;;;7.51;67.65;94565.03;4206308;28;20093;-52
2023/02/24 04:10:57;;;;;;;13.85;7.93;;;;;;;7.35;67.96;94566.41;4196621;28;20076;-50
2023/02/24 04:13:04;;;;;;;12.50;7.43;;;;;;;7.17;69.26;94557.72;4181965;28;20072;-52
2023/02/24 04:15:16;;;;;;;12.70;7.60;;;;;;;7.29;69.47;94567.00;4182144;28;20056;-51
2023/02/24 04:17:22;;;;;;;11.98;7.72;;;;;;;7.45;68.50;94560.38;4193292;28;20051;-53
2023/02/24 04:19:26;;;;;;;13.52;7.13;;;;;;;7.54;68.22;94560.31;4186682;28;20107;-61
2023/02/24 04:21:30;;;;;;;15.57;8.20;;;;;;;7.56;67.81;94566.22;4195744;28;20131;-61
2023/02/24 04:23:33;;;;;;;;;;;;;;;7.68;67.94;94555.59;4206750;28;20078;-58
2023/02/24 04:25:35;;;;;;;16.35;7.57;;;;;;;7.74;67.67;94552.41;4180217;28;19964;-59
2023/02/24 04:27:36;;;;;;;13.05;8.20;;;;;;;7.81;67.56;94550.88;4196717;28;20064;-58
2023/02/24 04:29:45;;;;;;;15.20;7.63;;;;;;;7.89;67.24;94550.94;4187724;28;20059;-57
2023/02/24 04:31:51;;;;;;;14.40;7.80;;;;;;;8.01;66.92;94548.97;4201299;28;20085;-58
2023/02/24 04:33:54;;;;;;;13.38;7.53;;;;;;;8.08;66.47;94552.63;4210356;28;20087;-60
2023/02/24 04:35:55;;;;;;;11.90;7.28;;;;;;;8.04;65.88;94545.22;4212277;28;20117;-59
2023/02/24 04:37:57;;;;;;;13.18;6.65;;;;;;;8.04;66.64;94535.63;4210811;28;20039;-57
2023/02/24 04:39:59;;;;;;;11.43;6.40;;;;;;;8.08;65.92;94536.16;4213008;28;20597;-55
2023/02/24 04:42:01;;;;;;;11.15;5.88;;;;;;;8.00;66.42;94531.66;4211674;28;20118;-53
2023/02/24 04:44:02;;;;;;;12.70;6.47;;;;;;;7.92;66.21;94536.81;4212152;28;20078;-52
2023/02/24 04:46:06;;;;;;;9.85;6.10;;;;;;;7.98;66.01;94536.22;4207878;28;20044;-57
2023/02/24 04:48:11;;;;;;;9.88;6.07;;;;;;;8.05;66.22;94531.25;4202651;28;20066;-58
2023/02/24 04:50:21;;;;;;;12.80;5.65;;;;;;;8.14;65.59;94535.56;4211333;28;20052;-58
2023/02/24 04:52:23;;;;;;;9.55;5.90;;;;;;;8.21;65.48;94526.97;4212436;28;20056;-61
2023/02/24 04:54:25;;;;;;;9.55;5.90;;;;;;;8.27;64.89;94527.38;4205972;28;20463;-56
2023/02/24 04:56:27;;;;;;;9.10;4.95;;;;;;;8.35;64.66;94532.66;4201374;28;20056;-57
2023/02/24 04:58:29;;;;;;;8.75;5.43;;;;;;;8.02;64.98;94534.13;4209386;28;20056;-56
2023/02/24 05:00:34;;;;;;;9.80;5.57;;;;;;;7.88;65.93;94533.66;4211534;28;20048;-58
2023/02/24 05:02:37;;;;;;;12.25;6.45;;;;;;;7.56;66.79;94536.72;4211301;28;20047;-57
2023/02/24 05:04:38;;;;;;;11.05;5.85;;;;;;;7.22;68.14;94541.66;4212498;28;20044;-56
2023/02/24 05:06:42;;;;;;;14.15;6.28;;;;;;;7.02;68.66;94533.09;4195714;28;20437;-57
2023/02/24 05:08:44;;;;;;;10.05;6.45;;;;;;;7.01;69.21;94529.63;4196831;28;20072;-55
2023/02/24 05:10:46;;;;;;;11.40;7.13;;;;;;;7.13;69.16;94530.31;4188354;28;20491;-57
2023/02/24 05:12:48;;;;;;;12.65;6.70;;;;;;;7.30;69.00;94533.94;4190377;28;20509;-54
2023/02/24 05:14:50;;;;;;;11.68;6.65;;;;;;;7.38;67.97;94534.88;4182844;28;20075;-56
2023/02/24 05:16:55;;;;;;;10.88;6.53;;;;;;;7.34;68.23;94538.72;4196182;28;20164;-58
2023/02/24 05:21:35;;;;;;;14.02;6.43;;;;;;;7.57;67.84;94546.16;4194001;28;20075;-60
2023/02/24 05:23:39;;;;;;;10.52;5.63;;;;;;;7.58;66.88;94540.00;4203247;28;20098;-59
2023/02/24 05:25:41;;;;;;;;;;;;;;;7.59;66.93;94539.03;4191113;28;20433;-56
2023/02/24 05:27:43;;;;;;;9.82;5.75;;;;;;;7.65;66.84;94533.22;4179040;28;19920;-60
2023/02/24 05:29:45;;;;;;;11.27;5.35;;;;;;;7.71;66.61;94539.66;4183972;28;20081;-59
2023/02/24 05:31:46;;;;;;;8.75;4.88;;;;;;;7.78;66.20;94536.31;4196002;28;20044;-58
2023/02/24 05:33:56;;;;;;;8.15;4.47;;;;;;;7.91;65.85;94535.97;4186473;28;20102;-58
2023/02/24 05:36:02;;;;;;;7.32;4.53;;;;;;;8.04;65.30;94540.03;4182138;28;20097;-57
2023/02/24 05:38:07;;;;;;;6.93;4.65;;;;;;;8.12;65.16;94538.31;4180804;28;20048;-62
2023/02/24 05:40:12;;;;;;;6.05;3.95;;;;;;;8.14;64.36;94549.41;4181469;28;20128;-60
2023/02/24 05:42:14;;;;;;;6.63;4.80;;;;;;;8.15;64.69;94543.25;4180261;28;20057;-59
2023/02/24 05:44:22;;;;;;;7.20;4.72;;;;;;;8.18;64.54;94542.94;4194751;28;20044;-60
2023/02/24 05:46:28;;;;;;;8.80;4.43;;;;;;;8.16;64.25;94550.09;4187643;28;20045;-58
2023/02/24 05:48:33;;;;;;;5.80;3.67;;;;;;;8.15;64.26;94543.25;4195980;28;20100;-59
2023/02/24 05:50:37;;;;;;;9.73;4.45;;;;;;;8.19;64.11;94541.16;4188859;28;20087;-60
2023/02/24 05:52:39;;;;;;;6.60;4.47;;;;;;;8.23;64.59;94545.09;4195014;28;20144;-60
2023/02/24 05:54:43;;;;;;;9.85;4.68;;;;;;;8.25;64.65;94544.97;4193167;28;20078;-60
2023/02/24 05:56:45;;;;;;;8.82;4.40;;;;;;;8.21;64.76;94547.84;4187350;28;20056;-57
2023/02/24 05:58:48;;;;;;;7.82;4.57;;;;;;;8.21;65.22;94545.25;4186343;28;20055;-59
2023/02/24 06:00:51;;;;;;;9.13;5.00;;;;;;;8.26;65.38;94547.44;4184505;28;20049;-59
2023/02/24 06:02:52;;;;;;;6.30;4.72;;;;;;;8.31;64.80;94552.22;4183263;28;20072;-60
2023/02/24 06:04:54;;;;;;;9.18;4.95;;;;;;;8.32;64.95;94557.25;4186137;28;20056;-57
2023/02/24 06:06:56;;;;;;;7.55;4.70;;;;;;;8.35;64.37;94558.78;4183950;28;20421;-59
2023/02/24 06:09:00;;;;;;;8.38;4.30;;;;;;;8.29;64.18;94570.63;4189111;28;20055;-60
2023/02/24 06:11:02;;;;;;;6.88;4.47;;;;;;;8.17;64.49;94572.63;4188738;28;20442;-58
2023/02/24 06:13:05;;;;;;;9.50;6.20;;;;;;;8.05;65.21;94567.75;4197784;28;20048;-59
2023/02/24 06:15:07;;;;;;;14.57;6.75;;;;;;;7.77;66.91;94571.19;4185350;28;20047;-60
2023/02/24 06:17:09;;;;;;;8.85;5.95;;;;;;;7.64;67.48;94568.09;4192272;28;20044;-59
2023/02/24 06:19:11;;;;;;;10.50;6.28;;;;;;;7.50;68.36;94563.34;4198930;28;20139;-59
2023/02/24 06:21:14;;;;;;;9.90;5.97;;;;;;;7.31;69.13;94572.91;4188951;28;20060;-60
2023/02/24 06:23:16;;;;;;;12.23;6.40;;;;;;;7.23;69.32;94570.19;4189338;28;20060;-61
2023/02/24 06:25:19;;;;;;;14.52;6.05;;;;;;;7.23;69.17;94572.78;4211050;28;20048;-59
2023/02/24 06:27:23;;;;;;;9.70;5.82;;;;;;;7.20;69.46;94570.44;4203824;28;20458;-58
2023/02/24 06:29:28;;;;;;;9.52;5.70;;;;;;;7.16;69.69;94566.47;4214873;28;20075;-60
2023/02/24 06:31:30;;;;;;;8.68;5.65;;;;;;;7.14;70.08;94573.63;4204638;28;20098;-59
2023/02/24 06:33:35;;;;;;;10.73;6.13;;;;;;;7.24;69.82;94569.22;4206979;28;20049;-58
2023/02/24 06:35:37;;;;;;;9.95;6.40;;;;;;;7.38;69.39;94570.56;4209559;28;20452;-59
2023/02/24 06:37:40;;;;;;;11.07;6.18;;;;;;;7.33;69.04;94570.94;4214405;28;20391;-60
2023/02/24 06:39:42;;;;;;;11.68;6.72;;;;;;;7.37;69.76;94569.72;4214341;28;20079;-60
2023/02/24 06:41:44;;;;;;;10.48;6.00;;;;;;;7.28;69.36;94572.34;4214596;28;20044;-61
2023/02/24 06:43:49;;;;;;;10.32;6.22;;;;;;;7.12;70.19;94571.19;4190919;28;20049;-60
2023/02/24 06:45:51;;;;;;;14.00;6.90;;;;;;;7.24;70.58;94566.59;4183259;28;20566;-57
2023/02/24 06:47:52;;;;;;;12.13;7.32;;;;;;;7.34;70.17;94570.00;4180042;28;20057;-59
2023/02/24 06:49:54;;;;;;;11.38;6.30;;;;;;;7.38;69.83;94555.72;4191018;28;20113;-56
2023/02/24 06:51:56;;;;;;;13.82;7.05;;;;;;;7.46;69.41;94554.19;4189153;28;20419;-58
2023/02/24 06:53:58;;;;;;;10.57;6.25;;;;;;;7.57;69.64;94559.19;4195099;28;20067;-60
2023/02/24 06:56:13;;;;;;;11.68;6.85;;;;;;;7.71;68.54;94556.13;4193542;28;20083;-60
2023/02/24 06:58:17;;;;;;;11.45;6.72;;;;;;;7.80;68.66;94549.22;4197369;28;20048;-60
2023/02/24 07:00:19;;;;;;;11.85;7.47;;;;;;;7.89;68.57;94542.31;4186094;28;20049;-59
2023/02/24 07:02:24;;;;;;;11.20;6.50;;;;;;;8.04;68.85;94551.25;4206789;28;20094;-60
2023/02/24 07:04:26;;;;;;;14.13;6.57;;;;;;;8.16;67.81;94547.50;4196950;28;20130;-60
2023/02/24 07:06:39;;;;;;;13.23;6.55;;;;;;;8.21;67.82;94552.25;4184645;28;20049;-55
2023/02/24 07:08:42;;;;;;;12.05;6.78;;;;;;;8.15;67.34;94545.00;4197220;28;20126;-56
2023/02/24 07:10:44;;;;;;;10.27;7.00;;;;;;;8.13;67.92;94550.41;4197677;28;20045;-58
2023/02/24 07:12:46;;;;;;;13.70;7.00;;;;;;;8.03;67.23;94547.03;4197326;28;20292;-53
2023/02/24 07:14:49;;;;;;;13.63;7.55;;;;;;;7.83;68.33;94556.78;4211701;28;20052;-54
2023/02/24 07:16:52;;;;;;;14.90;8.37;;;;;;;7.54;68.66;94555.09;4214514;28;20055;-56
2023/02/24 07:18:56;;;;;;;15.77;7.22;;;;;;;7.41;69.21;94548.59;4194982;28;20285;-55
2023/02/24 07:21:03;;;;;;;14.00;7.50;;;;;;;7.22;71.36;94547.69;4193778;28;20087;-57
2023/02/24 07:23:05;;;;;;;12.98;6.93;;;;;;;7.15;70.63;94544.00;4198753;28;20049;-59
2023/02/24 07:25:07;;;;;;;15.13;6.97;;;;;;;7.21;70.69;94546.06;4183298;28;20049;-56
2023/02/24 07:27:20;;;;;;;14.43;7.93;;;;;;;7.08;70.39;94542.94;4189560;28;20044;-57
2023/02/24 07:29:24;;;;;;;11.10;6.97;;;;;;;6.90;70.94;94553.25;4214267;28;20630;-57
2023/02/24 07:31:25;;;;;;;14.73;7.93;;;;;;;6.97;71.10;94536.94;4200760;28;20052;-57
2023/02/24 07:33:27;;;;;;;13.05;7.47;;;;;;;7.14;70.87;94540.59;4196006;28;20056;-58
2023/02/24 07:35:29;;;;;;;14.38;7.38;;;;;;;7.33;70.52;94534.47;4187821;28;20540;-57
2023/02/24 07:37:31;;;;;;;14.10;8.05;;;;;;;7.43;69.32;94539.66;4194846;28;20083;-57
2023/02/24 07:39:35;;;;;;;12.30;7.38;;;;;;;7.36;69.58;94546.41;4202865;28;20052;-53
2023/02/24 07:41:37;;;;;;;14.68;7.82;;;;;;;7.20;69.69;94551.41;4187738;28;20059;-57
2023/02/24 07:43:41;;;;;;;14.20;8.00;;;;;;;7.21;69.51;94543.44;4194662;28;20108;-58
2023/02/24 07:45:42;;;;;;;14.90;7.80;;;;;;;7.17;69.85;94547.31;4191617;28;20049;-56
2023/02/24 07:47:44;;;;;;;15.27;8.32;;;;;;;7.23;69.46;94536.31;4190042;28;20134;-54
2023/02/24 07:49:46;;;;;;;11.70;7.55;;;;;;;7.30;69.71;94547.81;4195473;28;20128;-55
2023/02/24 07:51:51;;;;;;;16.42;9.38;;;;;;;7.38;69.53;94545.31;4187213;28;20041;-54
2023/02/24 07:53:58;;;;;;;13.60;7.90;;;;;;;7.32;69.60;94545.88;4192728;28;20093;-54
2023/02/24 07:56:02;;;;;;;13.77;7.03;;;;;;;7.13;70.23;94538.94;4190720;28;20084;-54
2023/02/24 07:58:04;;;;;;;;;;;;;;;7.29;71.73;94535.75;4200729;28;20045;-57
2023/02/24 08:00:16;;;;;;;12.68;7.47;;;;;;;7.45;71.26;94523.88;4190650;28;19921;-57
2023/02/24 08:02:18;;;;;;;13.38;7.25;;;;;;;7.57;70.17;94530.53;4186791;28;20660;-54
2023/02/24 08:04:25;;;;;;;14.60;8.05;;;;;;;7.60;69.67;94522.44;4193070;28;20049;-57
2023/02/24 08:06:42;;;;;;;11.48;7.22;;;;;;;7.76;70.03;94522.59;4200152;28;20536;-53
2023/02/24 08:09:15;;;;;;;18.52;7.50;;;;;;;7.97;69.35;94519.72;4188603;28;20047;-58
2023/02/24 08:11:17;;;;;;;13.90;7.65;;;;;;;8.21;68.60;94513.13;4208943;28;20379;-56
2023/02/24 08:13:22;;;;;;;13.07;7.22;;;;;;;8.38;67.99;94509.69;4212930;28;20146;-55
2023/02/24 08:15:32;;;;;;;16.05;7.53;;;;;;;8.54;67.43;94514.25;4213793;28;20054;-54
2023/02/24 08:17:34;;;;;;;12.30;7.22;;;;;;;8.61;66.01;94507.47;4200343;28;20044;-57
2023/02/24 08:19:38;;;;;;;11.63;7.40;;;;;;;8.72;66.16;94516.03;4210472;28;20082;-56
2023/02/24 08:21:46;;;;;;;21.20;7.65;;;;;;;8.81;65.80;94512.50;4213838;28;20048;-58
2023/02/24 08:23:48;;;;;;;13.27;7.55;;;;;;;8.88;65.36;94515.31;4204915;28;20098;-57
2023/02/24 08:25:49;;;;;;;13.10;6.85;;;;;;;9.00;65.10;94508.88;4190576;28;20061;-57
2023/02/24 08:27:55;;;;;;;19.27;8.63;;;;;;;9.10;64.48;94508.75;4189173;28;20049;-58
2023/02/24 08:30:22;;;;;;;13.30;7.18;;;;;;;9.17;63.84;94512.41;4207330;28;20053;-59
2023/02/24 08:32:35;;;;;;;18.10;8.55;;;;;;;9.21;63.62;94513.72;4184523;28;20107;-57
2023/02/24 08:34:38;;;;;;;15.73;7.70;;;;;;;9.12;63.10;94507.66;4180376;28;20049;-55
2023/02/24 08:36:45;;;;;;;17.40;7.63;;;;;;;8.90;64.28;94514.19;4192814;28;20375;-54
2023/02/24 08:38:50;;;;;;;15.88;7.70;;;;;;;8.27;65.83;94515.13;4213257;28;20051;-58
2023/02/24 08:40:54;;;;;;;18.95;7.57;;;;;;;8.11;66.13;94521.03;4183428;28;20079;-55
2023/02/24 08:43:18;;;;;;;14.85;7.28;;;;;;;7.84;67.65;94513.25;4188213;28;20048;-55
2023/02/24 08:45:19;;;;;;;17.73;8.55;;;;;;;7.90;68.07;94512.66;4196500;28;20064;-58
2023/02/24 08:47:29;;;;;;;15.30;8.88;;;;;;;7.94;67.96;94506.19;4192582;28;20147;-55
2023/02/24 08:49:32;;;;;;;18.73;8.75;;;;;;;8.09;68.14;94506.50;4185165;28;20048;-55
2023/02/24 08:51:34;;;;;;;15.80;9.20;;;;;;;8.19;67.39;94508.06;4195673;28;20124;-54
2023/02/24 08:53:39;;;;;;;17.35;9.00;;;;;;;7.94;68.07;94508.78;4182232;28;20099;-53
2023/02/24 08:55:41;;;;;;;15.55;8.25;;;;;;;8.03;67.63;94499.25;4187653;28;20134;-52
2023/02/24 08:57:50;;;;;;;17.27;9.45;;;;;;;8.03;67.57;94507.91;4212150;28;20326;-55
2023/02/24 08:59:56;;;;;;;14.35;8.48;;;;;;;8.00;68.00;94513.41;4212235;28;20070;-58
2023/02/24 09:02:17;;;;;;;16.73;8.95;;;;;;;7.99;67.82;94509.97;4198629;28;20058;-56
2023/02/24 09:04:19;;;;;;;15.95;8.68;;;;;;;7.85;67.81;94514.88;4194034;28;20099;-59
2023/02/24 09:06:32;;;;;;;18.13;8.63;;;;;;;8.04;67.79;94506.91;4192701;28;20546;-53
2023/02/24 09:08:37;;;;;;;14.90;8.85;;;;;;;8.28;67.15;94506.34;4181387;28;20077;-54
2023/02/24 09:10:39;;;;;;;15.90;8.88;;;;;;;8.08;66.86;94505.66;4203053;28;20051;-59
2023/02/24 09:12:41;;;;;;;14.30;8.88;;;;;;;7.74;67.92;94513.28;4211004;28;20048;-58
2023/02/24 09:14:43;;;;;;;16.65;8.65;;;;;;;7.80;68.39;94513.53;4209936;28;20079;-56
2023/02/24 09:17:01;;;;;;;15.07;9.02;;;;;;;7.63;68.50;94505.69;4207923;28;20044;-53
2023/02/24 09:19:39;;;;;;;20.50;10.63;;;;;;;7.82;68.64;94509.97;4203414;28;20078;-56
2023/02/24 09:23:51;;;;;;;15.77;9.05;;;;;;;8.44;66.87;94494.44;4182239;28;20049;-54
2023/02/24 09:25:53;;;;;;;16.67;8.15;;;;;;;8.48;66.38;94495.78;4190054;28;20105;-55
2023/02/24 09:28:09;;;;;;;18.88;8.75;;;;;;;8.47;65.75;94494.94;4199297;28;20482;-58
2023/02/24 09:30:34;;;;;;;14.20;8.18;;;;;;;8.53;65.58;94494.34;4189087;28;20044;-60
2023/02/24 09:32:33;;;;;;;19.17;8.85;;;;;;;8.58;65.61;94499.09;4209990;28;20048;-55
2023/02/24 09:34:42;;;;;;;14.80;9.05;;;;;;;8.64;65.62;94495.06;4197079;28;20139;-57
2023/02/24 09:36:44;;;;;;;16.10;8.77;;;;;;;8.84;65.57;94496.53;4189807;28;20075;-54
2023/02/24 09:41:28;;;;;;;17.15;8.82;;;;;;;8.71;65.14;94496.09;4185736;28;20052;-60
2023/02/24 09:43:39;;;;;;;18.30;8.98;;;;;;;8.89;64.84;94494.25;4189137;28;20141;-57
2023/02/24 09:45:41;;;;;;;18.38;8.27;;;;;;;8.86;64.80;94488.53;4196132;28;20086;-57
2023/02/24 09:50:12;;;;;;;16.83;8.57;;;;;;;9.17;64.04;94489.69;4191811;28;20048;-53
2023/02/24 09:52:17;;;;;;;24.58;11.57;;;;;;;9.31;63.59;94484.84;4215022;28;20634;-58
2023/02/24 09:54:23;;;;;;;;;;;;;;;9.46;63.57;94474.63;4216192;28;20071;-54
2023/02/24 09:56:35;;;;;;;18.15;9.75;;;;;;;9.55;62.46;94476.28;4194526;28;20390;-59
2023/02/24 09:58:47;;;;;;;16.85;9.85;;;;;;;9.63;62.43;94479.75;4211409;28;20069;-57
2023/02/24 10:00:54;;;;;;;17.27;9.10;;;;;;;9.67;62.24;94472.41;4215611;28;20056;-53
2023/02/24 10:03:18;;;;;;;14.63;8.02;;;;;;;9.81;61.79;94473.59;4202874;28;20505;-57
2023/02/24 10:05:44;;;;;;;15.25;8.38;;;;;;;10.02;61.54;94478.38;4198230;28;20040;-55
2023/02/24 10:07:51;;;;;;;20.17;9.10;;;;;;;10.05;60.54;94460.56;4198808;28;20076;-54
2023/02/24 10:10:19;;;;;;;18.65;9.73;;;;;;;10.14;60.53;94453.53;4197465;28;20040;-52